Terminal Aerodrome Forecast
Issued by NWS

Current Version | Previous Version | Graphics & Text | Print | Product List | Glossary On
Versions: 1 2 3 4 5 6 7 8 9 10 11 12 13 14 15 16 17 18 19 20 21 22
000
FTUS41 KILN 292157 AAB
TAFLUK
TAF AMD
KLUK 292157Z 2922/3018 24005KT P6SM VCTS SCT040CB BKN200
      TEMPO 2922/2923 3SM -TSRA BR BKN025CB
     FM292300 30004KT P6SM SCT120
     FM300600 34004KT P6SM SCT020
      TEMPO 3008/3012 3SM BR
     FM301300 30006KT P6SM FEW035=

USA.gov is the U.S. government's official web portal to all federal, state and local government web resources and services.